createdAt,value
2019-04-01T00:02:09.394Z,6.78
2019-04-01T00:04:37.843Z,8.85
2019-04-01T00:07:06.300Z,9.00
2019-04-01T00:09:34.748Z,10.65
2019-04-01T00:12:03.194Z,12.13
2019-04-01T00:14:31.628Z,10.68
2019-04-01T00:17:00.080Z,6.30
2019-04-01T00:19:28.530Z,9.38
2019-04-01T00:21:56.956Z,7.22
2019-04-01T00:24:25.496Z,10.60
2019-04-01T00:26:53.956Z,13.43
2019-04-01T00:29:22.386Z,15.38
2019-04-01T00:31:50.816Z,17.60
2019-04-01T00:34:19.284Z,11.85
2019-04-01T00:36:47.726Z,11.93
2019-04-01T00:39:16.160Z,11.20
2019-04-01T00:41:48.918Z,7.10
2019-04-01T00:44:17.358Z,8.73
2019-04-01T00:46:45.800Z,11.10
2019-04-01T00:49:14.291Z,10.85
2019-04-01T00:51:42.748Z,10.10
2019-04-01T00:54:11.174Z,7.28
2019-04-01T00:56:39.599Z,8.93
2019-04-01T00:59:08.049Z,8.18
2019-04-01T01:01:36.479Z,9.20
2019-04-01T01:04:04.904Z,8.65
2019-04-01T01:06:33.351Z,6.45
2019-04-01T01:09:01.796Z,6.35
2019-04-01T01:11:30.200Z,6.72
2019-04-01T01:13:58.654Z,6.62
2019-04-01T01:16:27.099Z,9.48
2019-04-01T01:18:55.552Z,9.10
2019-04-01T01:21:25.559Z,10.65
2019-04-01T01:23:54.013Z,9.03
2019-04-01T01:26:22.448Z,10.72
2019-04-01T01:28:50.912Z,8.63
2019-04-01T01:31:19.320Z,8.88
2019-04-01T01:33:47.744Z,8.50
2019-04-01T01:36:16.202Z,12.43
2019-04-01T01:38:44.655Z,9.48
2019-04-01T01:41:13.070Z,4.92
2019-04-01T01:43:41.519Z,9.23
2019-04-01T01:46:09.954Z,8.10
2019-04-01T01:48:38.405Z,11.10
2019-04-01T01:51:06.840Z,9.08
2019-04-01T01:53:35.294Z,7.47
2019-04-01T01:56:03.768Z,15.05
2019-04-01T01:58:32.189Z,9.20
2019-04-01T02:01:00.622Z,10.08
2019-04-01T02:03:29.090Z,15.03
2019-04-01T02:05:57.534Z,11.57
2019-04-01T02:08:26.012Z,17.37
2019-04-01T02:10:54.453Z,21.33
2019-04-01T02:13:22.906Z,24.92
2019-04-01T02:15:51.364Z,21.73
2019-04-01T02:18:19.809Z,14.58
2019-04-01T02:20:48.233Z,12.82
2019-04-01T02:23:16.716Z,20.80
2019-04-01T02:25:45.246Z,20.72
2019-04-01T02:28:13.681Z,17.23
2019-04-01T02:30:42.121Z,18.10
2019-04-01T02:33:10.578Z,15.68
2019-04-01T02:35:39.039Z,10.82
2019-04-01T02:38:07.480Z,7.87
2019-04-01T02:40:36.101Z,10.43
2019-04-01T02:43:04.675Z,9.68
2019-04-01T02:45:33.131Z,10.00
2019-04-01T02:48:01.578Z,10.90
2019-04-01T02:50:30.002Z,6.75
2019-04-01T02:52:58.483Z,9.68
2019-04-01T02:55:26.899Z,15.93
2019-04-01T02:57:55.322Z,10.35
2019-04-01T03:00:23.778Z,6.50
2019-04-01T03:02:52.233Z,11.22
2019-04-01T03:05:20.688Z,16.02
2019-04-01T03:07:49.119Z,8.55
2019-04-01T03:10:17.548Z,9.18
2019-04-01T03:12:46.003Z,8.50
2019-04-01T03:15:14.456Z,13.43
2019-04-01T03:17:42.887Z,7.42
2019-04-01T03:20:11.507Z,8.88
2019-04-01T03:22:39.973Z,9.80
2019-04-01T03:25:08.581Z,18.73
2019-04-01T03:27:37.036Z,16.05
2019-04-01T03:30:06.322Z,16.77
2019-04-01T03:32:34.780Z,19.70
2019-04-01T03:35:03.329Z,18.00
2019-04-01T03:37:31.749Z,19.37
2019-04-01T03:40:00.629Z,22.37
2019-04-01T03:42:29.235Z,16.55
2019-04-01T03:44:57.673Z,20.27
2019-04-01T03:47:26.138Z,16.80
2019-04-01T03:49:54.601Z,17.32
2019-04-01T03:52:23.047Z,14.93
2019-04-01T03:54:51.503Z,14.83
2019-04-01T03:57:19.949Z,18.62
2019-04-01T03:59:48.430Z,15.25
2019-04-01T04:02:16.894Z,16.27
2019-04-01T04:04:45.329Z,14.93
2019-04-01T04:07:13.801Z,16.57
2019-04-01T04:09:42.226Z,16.75
2019-04-01T04:12:10.683Z,12.30
2019-04-01T04:14:39.167Z,14.87
2019-04-01T04:17:07.614Z,15.93
2019-04-01T04:19:36.075Z,17.12
2019-04-01T04:22:04.515Z,26.02
2019-04-01T04:24:32.980Z,20.60
2019-04-01T04:27:01.418Z,18.12
2019-04-01T04:29:29.851Z,16.50
2019-04-01T04:31:58.333Z,17.87
2019-04-01T04:34:26.979Z,23.22
2019-04-01T04:36:55.476Z,37.15
2019-04-01T04:39:23.938Z,19.48
2019-04-01T04:41:52.401Z,14.33
2019-04-01T04:44:21.009Z,20.82
2019-04-01T04:46:49.862Z,19.45
2019-04-01T04:49:18.303Z,20.15
2019-04-01T04:51:46.831Z,12.75
2019-04-01T04:54:15.294Z,12.10
2019-04-01T04:56:43.737Z,21.17
2019-04-01T04:59:12.207Z,14.20
2019-04-01T05:01:40.639Z,14.68
2019-04-01T05:04:09.105Z,10.85
2019-04-01T05:06:37.581Z,18.45
2019-04-01T05:09:06.700Z,15.15
2019-04-01T05:11:35.164Z,85.05
2019-04-01T05:14:03.707Z,83.55
2019-04-01T05:16:32.152Z,34.27
2019-04-01T05:19:00.607Z,52.90
2019-04-01T05:21:30.258Z,40.95
2019-04-01T05:23:59.174Z,32.10
2019-04-01T05:26:28.091Z,15.78
2019-04-01T05:28:58.385Z,36.90
2019-04-01T05:31:28.757Z,29.37
2019-04-01T05:34:00.257Z,22.32
2019-04-01T05:36:28.863Z,23.05
2019-04-01T05:38:57.769Z,19.37
2019-04-01T05:41:26.327Z,18.32
2019-04-01T05:43:55.035Z,21.93
2019-04-01T05:46:23.467Z,16.57
2019-04-01T05:48:52.102Z,13.43
2019-04-01T05:51:20.574Z,14.15
2019-04-01T05:53:49.610Z,10.10
2019-04-01T05:56:18.008Z,11.28
2019-04-01T05:58:46.473Z,17.85
2019-04-01T06:01:25.585Z,16.15
2019-04-01T06:03:54.051Z,12.13
2019-04-01T06:06:22.471Z,15.10
2019-04-01T06:08:50.905Z,10.95
2019-04-01T06:11:19.380Z,10.45
2019-04-01T06:13:47.913Z,42.98
2019-04-01T06:16:16.555Z,19.07
2019-04-01T06:18:45.105Z,13.55
2019-04-01T06:21:14.716Z,18.42
2019-04-01T06:23:43.226Z,15.93
2019-04-01T06:26:11.856Z,13.55
2019-04-01T06:28:40.304Z,10.88
2019-04-01T06:31:08.842Z,8.45
2019-04-01T06:33:37.335Z,11.57
2019-04-01T06:36:05.801Z,17.12
2019-04-01T06:38:34.314Z,15.85
2019-04-01T06:41:02.782Z,16.42
2019-04-01T06:43:31.238Z,12.60
2019-04-01T06:45:59.693Z,17.75
2019-04-01T06:48:35.663Z,13.78
2019-04-01T06:51:04.313Z,11.63
2019-04-01T06:53:32.776Z,16.20
2019-04-01T06:56:01.237Z,19.02
2019-04-01T06:58:29.697Z,8.45
2019-04-01T07:00:58.300Z,12.28
2019-04-01T07:03:26.771Z,21.93
2019-04-01T07:05:55.210Z,17.90
2019-04-01T07:08:23.674Z,15.32
2019-04-01T07:10:52.111Z,10.00
2019-04-01T07:13:20.581Z,17.07
2019-04-01T07:15:49.007Z,8.38
2019-04-01T07:18:17.610Z,11.55
2019-04-01T07:20:46.123Z,7.83
2019-04-01T07:23:14.630Z,9.65
2019-04-01T07:25:43.146Z,11.68
2019-04-01T07:28:11.615Z,8.73
2019-04-01T07:30:41.861Z,9.60
2019-04-01T07:33:10.335Z,10.45
2019-04-01T07:35:38.795Z,10.53
2019-04-01T07:38:07.296Z,9.55
2019-04-01T07:40:35.963Z,5.65
2019-04-01T07:43:04.740Z,11.48
2019-04-01T07:45:33.181Z,8.50
2019-04-01T07:48:01.637Z,6.30
2019-04-01T07:50:30.142Z,9.68
2019-04-01T07:52:58.616Z,5.12
2019-04-01T07:55:27.140Z,6.83
2019-04-01T07:57:55.560Z,9.70
2019-04-01T08:00:24.886Z,11.38
2019-04-01T08:02:53.359Z,7.50
2019-04-01T08:05:21.803Z,12.10
2019-04-01T08:07:50.276Z,9.10
2019-04-01T08:10:19.001Z,9.13
2019-04-01T08:12:47.453Z,11.08
2019-04-01T08:15:16.388Z,6.58
2019-04-01T08:17:44.995Z,6.92
2019-04-01T08:20:15.288Z,5.78
2019-04-01T08:22:43.770Z,13.60
2019-04-01T08:25:12.239Z,9.70
2019-04-01T08:27:40.659Z,6.17
2019-04-01T08:30:09.668Z,5.87
2019-04-01T08:32:38.107Z,9.18
2019-04-01T08:35:07.239Z,5.87
2019-04-01T08:37:35.847Z,8.55
2019-04-01T08:40:06.145Z,6.55
2019-04-01T08:42:36.140Z,7.20
2019-04-01T08:45:07.352Z,4.15
2019-04-01T08:47:35.832Z,4.70
2019-04-01T08:50:06.460Z,7.75
2019-04-01T08:52:35.107Z,5.37
2019-04-01T08:55:05.274Z,6.08
2019-04-01T08:57:33.890Z,8.35
2019-04-01T09:00:02.432Z,4.90
2019-04-01T09:02:31.060Z,6.50
2019-04-01T09:05:00.384Z,12.00
2019-04-01T09:07:28.843Z,7.25
2019-04-01T09:09:58.288Z,12.53
2019-04-01T09:12:27.977Z,10.67
2019-04-01T09:14:57.763Z,6.47
2019-04-01T09:17:26.450Z,8.47
2019-04-01T09:19:54.896Z,6.83
2019-04-01T09:22:23.361Z,4.10
2019-04-01T09:24:51.782Z,10.50
2019-04-01T09:27:20.255Z,10.67
2019-04-01T09:29:48.675Z,7.73
2019-04-01T09:32:17.117Z,5.07
2019-04-01T09:34:45.610Z,7.73
2019-04-01T09:37:14.051Z,5.40
2019-04-01T09:39:42.475Z,3.80
2019-04-01T09:42:10.938Z,12.93
2019-04-01T09:44:39.381Z,4.10
2019-04-01T09:47:07.835Z,6.13
2019-04-01T09:49:36.298Z,6.70
2019-04-01T09:52:04.817Z,6.77
2019-04-01T09:54:33.279Z,7.43
2019-04-01T09:57:16.115Z,5.50
2019-04-01T09:59:31.961Z,6.23
2019-04-01T10:02:00.426Z,6.70
2019-04-01T10:04:28.870Z,7.27
2019-04-01T10:06:57.345Z,4.20
2019-04-01T10:09:25.809Z,5.43
2019-04-01T10:11:54.394Z,6.73
2019-04-01T10:14:22.870Z,5.23
2019-04-01T10:16:51.297Z,5.57
2019-04-01T10:19:19.926Z,5.97
2019-04-01T10:21:49.157Z,10.27
2019-04-01T10:24:17.627Z,3.17
2019-04-01T10:26:46.098Z,6.80
2019-04-01T10:29:14.529Z,13.23
2019-04-01T10:31:43.002Z,15.70
2019-04-01T10:34:11.464Z,6.97
2019-04-01T10:36:39.919Z,5.30
2019-04-01T10:39:08.423Z,6.00
2019-04-01T10:41:36.944Z,6.20
2019-04-01T10:44:05.392Z,9.47
2019-04-01T10:46:33.932Z,6.80
2019-04-01T10:49:02.369Z,3.73
2019-04-01T10:51:30.841Z,5.40
2019-04-01T10:53:59.277Z,7.03
2019-04-01T10:56:27.755Z,6.63
2019-04-01T10:58:57.101Z,3.40
2019-04-01T11:01:25.536Z,4.63
2019-04-01T11:03:54.043Z,3.43
2019-04-01T11:06:22.439Z,4.87
2019-04-01T11:08:51.007Z,9.13
2019-04-01T11:11:19.470Z,8.70
2019-04-01T11:13:51.562Z,5.43
2019-04-01T11:16:18.408Z,5.43
2019-04-01T11:18:46.875Z,7.33
2019-04-01T11:21:15.349Z,10.83
2019-04-01T11:23:43.784Z,5.23
2019-04-01T11:26:12.241Z,6.80
2019-04-01T11:28:40.689Z,4.20
2019-04-01T11:31:09.182Z,5.03
2019-04-01T11:33:37.623Z,6.20
2019-04-01T11:36:06.133Z,8.00
2019-04-01T11:38:34.669Z,4.23
2019-04-01T11:41:03.208Z,6.17
2019-04-01T11:43:35.350Z,5.70
2019-04-01T11:46:02.182Z,7.07
2019-04-01T11:48:30.649Z,3.93
2019-04-01T11:50:59.124Z,3.50
2019-04-01T11:53:27.775Z,16.67
2019-04-01T11:55:56.220Z,4.23
2019-04-01T11:58:24.666Z,10.10
2019-04-01T12:00:53.210Z,5.23
2019-04-01T12:03:21.648Z,14.70
2019-04-01T12:05:50.076Z,4.17
2019-04-01T12:08:18.572Z,8.20
2019-04-01T12:10:47.006Z,6.53
2019-04-01T12:13:15.437Z,6.20
2019-04-01T12:15:43.904Z,7.23
2019-04-01T12:18:12.350Z,4.57
2019-04-01T12:20:40.860Z,21.07
2019-04-01T12:23:09.490Z,5.30
2019-04-01T12:25:39.839Z,4.33
2019-04-01T12:28:08.327Z,8.20
2019-04-01T12:30:36.779Z,3.27
2019-04-01T12:33:05.246Z,6.83
2019-04-01T12:35:34.102Z,10.60
2019-04-01T12:38:02.554Z,9.27
2019-04-01T12:40:31.127Z,4.90
2019-04-01T12:42:59.559Z,7.50
2019-04-01T12:45:28.036Z,7.13
2019-04-01T12:47:56.530Z,6.47
2019-04-01T12:50:24.983Z,5.77
2019-04-01T12:52:53.438Z,6.07
2019-04-01T12:55:21.932Z,3.43
2019-04-01T12:57:51.008Z,4.97
2019-04-01T13:00:19.904Z,8.90
2019-04-01T13:02:49.487Z,5.73
2019-04-01T13:05:18.018Z,6.47
2019-04-01T13:07:46.487Z,6.20
2019-04-01T13:10:15.093Z,4.40
2019-04-01T13:12:43.608Z,5.93
2019-04-01T13:15:12.976Z,3.20
2019-04-01T13:17:41.791Z,7.47
2019-04-01T13:20:10.821Z,6.67
2019-04-01T13:22:39.265Z,5.83
2019-04-01T13:25:08.171Z,5.83
2019-04-01T13:27:36.645Z,8.40
2019-04-01T13:30:07.198Z,5.80
2019-04-01T13:32:35.669Z,4.60
2019-04-01T13:35:07.647Z,3.93
2019-04-01T13:37:36.111Z,5.13
2019-04-01T13:40:05.981Z,4.13
2019-04-01T13:42:34.508Z,9.60
2019-04-01T13:45:03.144Z,3.30
2019-04-01T13:47:31.604Z,12.53
2019-04-01T13:50:00.090Z,11.40
2019-04-01T13:52:28.551Z,5.50
2019-04-01T13:54:56.998Z,3.97
2019-04-01T13:57:25.594Z,5.83
2019-04-01T13:59:54.048Z,6.23
2019-04-01T14:02:22.517Z,6.93
2019-04-01T14:04:50.995Z,4.07
2019-04-01T14:07:19.457Z,7.70
2019-04-01T14:09:47.919Z,2.10
2019-04-01T14:12:16.356Z,7.67
2019-04-01T14:14:44.826Z,4.37
2019-04-01T14:17:13.267Z,3.17
2019-04-01T14:19:41.698Z,6.77
2019-04-01T14:22:10.181Z,5.67
2019-04-01T14:24:38.641Z,9.73
2019-04-01T14:27:07.073Z,7.30
2019-04-01T14:29:36.564Z,6.10
2019-04-01T14:32:05.257Z,5.90
2019-04-01T14:34:33.731Z,4.00
2019-04-01T14:37:04.850Z,5.53
2019-04-01T14:39:34.794Z,5.07
2019-04-01T14:42:02.758Z,7.23
2019-04-01T14:44:31.216Z,7.47
2019-04-01T14:46:59.686Z,3.50
2019-04-01T14:49:28.136Z,9.13
2019-04-01T14:51:56.560Z,8.43
2019-04-01T14:54:25.014Z,6.50
2019-04-01T14:56:53.461Z,4.60
2019-04-01T14:59:21.939Z,5.40
2019-04-01T15:01:50.388Z,2.27
2019-04-01T15:04:18.817Z,5.83
2019-04-01T15:06:47.465Z,7.57
2019-04-01T15:09:17.305Z,6.27
2019-04-01T15:11:45.878Z,3.83
2019-04-01T15:14:14.302Z,3.97
2019-04-01T15:16:42.999Z,6.00
2019-04-01T15:19:13.032Z,13.23
2019-04-01T15:21:41.568Z,5.47
2019-04-01T15:24:10.021Z,4.60
2019-04-01T15:26:38.465Z,6.30
2019-04-01T15:29:06.942Z,5.30
2019-04-01T15:31:35.369Z,4.87
2019-04-01T15:34:03.808Z,9.30
2019-04-01T15:36:32.286Z,5.73
2019-04-01T15:39:00.821Z,4.57
2019-04-01T15:41:29.250Z,7.57
2019-04-01T15:43:57.738Z,6.77
2019-04-01T15:46:26.196Z,5.63
2019-04-01T15:48:54.629Z,9.17
2019-04-01T15:51:23.087Z,5.57
2019-04-01T15:53:51.520Z,5.20
2019-04-01T15:56:19.975Z,5.50
2019-04-01T15:58:50.800Z,7.10
2019-04-01T16:01:18.620Z,9.17
2019-04-01T16:03:47.079Z,7.17
2019-04-01T16:06:15.520Z,5.33
2019-04-01T16:08:43.988Z,3.67
